createdAt,value
2022-09-30T00:01:51.628Z,97443.78
2022-09-30T00:04:24.714Z,97434.13
2022-09-30T00:06:53.698Z,97443.97
2022-09-30T00:09:21.799Z,97441.94
2022-09-30T00:11:49.008Z,97434.75
2022-09-30T00:14:20.516Z,97441.06
2022-09-30T00:16:47.796Z,97436.38
2022-09-30T00:19:15.163Z,97438.50
2022-09-30T00:21:42.371Z,97445.53
2022-09-30T00:24:09.374Z,97449.31
2022-09-30T00:26:36.557Z,97450.41
2022-09-30T00:29:04.916Z,97455.63
2022-09-30T00:31:35.241Z,97439.63
2022-09-30T00:34:09.441Z,97446.91
2022-09-30T00:36:49.666Z,97441.06
2022-09-30T00:39:20.734Z,97451.69
2022-09-30T00:41:52.145Z,97458.16
2022-09-30T00:44:44.465Z,97460.38
2022-09-30T00:48:08.753Z,97468.38
2022-09-30T00:50:49.604Z,97471.38
2022-09-30T00:53:23.668Z,97465.47
2022-09-30T00:56:14.601Z,97462.84
2022-09-30T00:58:58.162Z,97457.88
2022-09-30T01:01:25.490Z,97461.97
2022-09-30T01:03:59.978Z,97466.75
2022-09-30T01:06:27.141Z,97470.50
2022-09-30T01:08:55.284Z,97476.19
2022-09-30T01:11:22.327Z,97472.31
2022-09-30T01:13:52.936Z,97478.91
2022-09-30T01:16:45.070Z,97476.38
2022-09-30T01:19:41.219Z,97486.09
2022-09-30T01:22:51.479Z,97479.25
2022-09-30T01:26:02.722Z,97477.16
2022-09-30T01:29:09.262Z,97468.97
2022-09-30T01:31:50.730Z,97471.56
2022-09-30T01:35:00.665Z,97464.28
2022-09-30T01:37:36.327Z,97474.25
2022-09-30T01:40:32.901Z,97472.16
2022-09-30T01:43:32.049Z,97468.47
2022-09-30T01:46:27.091Z,97463.09
2022-09-30T01:49:25.651Z,97463.72
2022-09-30T01:52:20.877Z,97460.13
2022-09-30T01:55:13.506Z,97468.69
2022-09-30T01:57:43.526Z,97464.50
2022-09-30T02:00:12.176Z,97476.06
2022-09-30T02:02:56.421Z,97482.13
2022-09-30T02:05:32.574Z,97485.81
2022-09-30T02:08:06.104Z,97483.94
2022-09-30T02:10:42.015Z,97488.53
2022-09-30T02:13:11.338Z,97492.00
2022-09-30T02:15:43.336Z,97495.88
2022-09-30T02:18:30.114Z,97495.19
2022-09-30T02:21:00.711Z,97507.47
2022-09-30T02:23:32.275Z,97511.78
2022-09-30T02:26:07.181Z,97519.59
2022-09-30T02:28:38.727Z,97520.66
2022-09-30T02:31:06.338Z,97507.22
2022-09-30T02:33:49.781Z,97508.84
2022-09-30T02:36:38.140Z,97504.78
2022-09-30T02:39:42.127Z,97510.69
2022-09-30T02:42:23.123Z,97508.19
2022-09-30T02:44:52.619Z,97510.75
2022-09-30T02:47:58.252Z,97522.59
2022-09-30T02:50:35.116Z,97531.69
2022-09-30T02:53:27.075Z,97519.63
2022-09-30T02:56:07.754Z,97526.25
2022-09-30T02:58:38.383Z,97529.50
2022-09-30T03:01:12.863Z,97527.50
2022-09-30T03:03:51.755Z,97519.94
2022-09-30T03:06:19.442Z,97520.84
2022-09-30T03:08:47.060Z,97526.44
2022-09-30T03:11:18.723Z,97523.50
2022-09-30T03:14:11.029Z,97534.34
2022-09-30T03:16:54.315Z,97540.72
2022-09-30T03:19:53.396Z,97550.41
2022-09-30T03:22:34.865Z,97534.84
2022-09-30T03:25:28.014Z,97535.56
2022-09-30T03:28:14.205Z,97539.16
2022-09-30T03:31:10.673Z,97543.84
2022-09-30T03:34:15.303Z,97561.25
2022-09-30T03:37:22.030Z,97569.91
2022-09-30T03:40:10.151Z,97575.63
2022-09-30T03:42:52.533Z,97571.88
2022-09-30T03:45:24.603Z,97580.13
2022-09-30T03:47:55.639Z,97577.19
2022-09-30T03:50:24.653Z,97578.16
2022-09-30T03:52:52.397Z,97568.88
2022-09-30T03:55:22.402Z,97575.06
2022-09-30T03:57:51.256Z,97574.94
2022-09-30T04:00:19.074Z,97582.75
2022-09-30T04:02:46.444Z,97583.56
2022-09-30T04:05:13.934Z,97584.28
2022-09-30T04:07:41.256Z,97586.69
2022-09-30T04:10:09.036Z,97592.00
2022-09-30T04:12:36.363Z,97585.09
2022-09-30T04:15:03.822Z,97593.50
2022-09-30T04:17:31.996Z,97599.44
2022-09-30T04:19:59.252Z,97600.59
2022-09-30T04:22:26.753Z,97606.91
2022-09-30T04:24:54.134Z,97606.63
2022-09-30T04:27:21.487Z,97601.63
2022-09-30T04:29:48.806Z,97600.16
2022-09-30T04:32:16.129Z,97603.66
2022-09-30T04:34:43.462Z,97601.34
2022-09-30T04:37:11.234Z,97610.06
2022-09-30T04:39:38.665Z,97614.47
2022-09-30T04:42:06.252Z,97615.91
2022-09-30T04:44:35.316Z,97621.50
2022-09-30T04:47:02.370Z,97625.81
2022-09-30T04:49:29.277Z,97615.66
2022-09-30T04:51:56.253Z,97617.78
2022-09-30T04:54:24.270Z,97612.81
2022-09-30T04:56:51.190Z,97619.91
2022-09-30T04:59:18.117Z,97626.75
2022-09-30T05:01:45.069Z,97636.22
2022-09-30T05:04:16.222Z,97638.31
2022-09-30T05:06:43.154Z,97640.28
2022-09-30T05:09:10.166Z,97639.41
2022-09-30T05:11:38.242Z,97634.75
2022-09-30T05:14:10.701Z,97637.25
2022-09-30T05:16:37.709Z,97639.56
2022-09-30T05:19:04.776Z,97643.00
2022-09-30T05:21:31.818Z,97656.16
2022-09-30T05:23:58.710Z,97663.09
2022-09-30T05:26:25.663Z,97662.25
2022-09-30T05:28:52.845Z,97667.66
2022-09-30T05:31:20.847Z,97661.47
2022-09-30T05:33:54.620Z,97671.69
2022-09-30T05:36:24.776Z,97667.03
2022-09-30T05:38:52.693Z,97665.06
2022-09-30T05:41:21.006Z,97663.13
2022-09-30T05:43:48.693Z,97672.25
2022-09-30T05:46:17.727Z,97675.81
2022-09-30T05:48:45.015Z,97667.63
2022-09-30T05:51:12.688Z,97674.03
2022-09-30T05:53:40.102Z,97678.13
2022-09-30T05:56:08.531Z,97671.28
2022-09-30T05:58:36.398Z,97684.06
2022-09-30T06:01:15.206Z,97692.00
2022-09-30T06:03:43.993Z,97694.59
2022-09-30T06:06:11.535Z,97694.78
2022-09-30T06:08:39.012Z,97688.47
2022-09-30T06:11:18.435Z,97687.59
2022-09-30T06:13:47.409Z,97684.13
2022-09-30T06:16:15.398Z,97672.41
2022-09-30T06:18:42.539Z,97680.41
2022-09-30T06:21:12.938Z,97693.34
2022-09-30T06:23:40.838Z,97707.06
2022-09-30T06:26:11.698Z,97717.75
2022-09-30T06:28:38.837Z,97725.50
2022-09-30T06:31:06.993Z,97730.16
2022-09-30T06:33:34.330Z,97732.66
2022-09-30T06:36:04.435Z,97733.66
2022-09-30T06:38:33.434Z,97743.50
2022-09-30T06:41:01.076Z,97750.03
2022-09-30T06:43:28.399Z,97747.84
2022-09-30T06:46:08.710Z,97750.09
2022-09-30T06:48:41.008Z,97759.31
2022-09-30T06:51:10.460Z,97755.97
2022-09-30T06:53:40.113Z,97747.38
2022-09-30T06:56:07.093Z,97755.41
2022-09-30T06:58:34.050Z,97755.66
2022-09-30T07:01:04.894Z,97755.84
2022-09-30T07:03:35.149Z,97751.63
2022-09-30T07:06:05.764Z,97764.03
2022-09-30T07:08:35.616Z,97760.63
2022-09-30T07:11:17.293Z,97764.44
2022-09-30T07:13:45.921Z,97776.16
2022-09-30T07:16:14.594Z,97773.28
2022-09-30T07:18:45.680Z,97777.59
2022-09-30T07:21:16.024Z,97789.53
2022-09-30T07:23:49.470Z,97787.84
2022-09-30T07:26:20.518Z,97792.06
2022-09-30T07:28:48.375Z,97783.47
2022-09-30T07:31:32.964Z,97792.84
2022-09-30T07:34:01.549Z,97794.78
2022-09-30T07:36:32.706Z,97785.00
2022-09-30T07:39:05.693Z,97779.19
2022-09-30T07:41:36.439Z,97781.19
2022-09-30T07:44:05.551Z,97781.19
2022-09-30T07:46:34.927Z,97775.47
2022-09-30T07:49:07.583Z,97779.28
2022-09-30T07:51:41.610Z,97793.09
2022-09-30T07:54:17.498Z,97790.19
2022-09-30T07:57:08.610Z,97798.00
2022-09-30T07:59:37.706Z,97801.78
2022-09-30T08:02:06.776Z,97795.97
2022-09-30T08:04:34.337Z,97800.13
2022-09-30T08:07:03.503Z,97801.69
2022-09-30T08:09:31.343Z,97803.06
2022-09-30T08:11:58.655Z,97808.31
2022-09-30T08:14:27.912Z,97801.31
2022-09-30T08:16:56.985Z,97803.31
2022-09-30T08:19:25.356Z,97810.81
2022-09-30T08:21:55.535Z,97807.09
2022-09-30T08:24:24.074Z,97819.72
2022-09-30T08:26:52.640Z,97816.56
2022-09-30T08:29:30.186Z,97822.91
2022-09-30T08:32:07.037Z,97828.69
2022-09-30T08:34:35.443Z,97831.59
2022-09-30T08:37:08.730Z,97829.03
2022-09-30T08:39:40.338Z,97825.44
2022-09-30T08:42:47.079Z,97824.31
2022-09-30T08:45:35.240Z,97826.09
2022-09-30T08:48:26.487Z,97825.53
2022-09-30T08:51:03.130Z,97822.84
2022-09-30T08:53:36.943Z,97828.66
2022-09-30T08:56:06.159Z,97830.78
2022-09-30T08:58:36.774Z,97825.22
2022-09-30T09:01:28.808Z,97817.59
2022-09-30T09:03:58.169Z,97822.59
2022-09-30T09:06:56.633Z,97821.28
2022-09-30T09:09:48.054Z,97828.66
2022-09-30T09:12:49.502Z,97828.75
2022-09-30T09:15:37.507Z,97830.25
2022-09-30T09:18:24.433Z,97826.31
2022-09-30T09:21:22.949Z,97823.31
2022-09-30T09:23:53.568Z,97824.59
2022-09-30T09:26:20.522Z,97824.09
2022-09-30T09:29:19.808Z,97822.09
2022-09-30T09:31:48.325Z,97812.88
2022-09-30T09:34:15.850Z,97820.06
2022-09-30T09:36:48.898Z,97812.00
2022-09-30T09:40:13.987Z,97809.81
2022-09-30T09:43:05.298Z,97803.31
2022-09-30T09:45:44.709Z,97804.63
2022-09-30T09:48:15.724Z,97807.72
2022-09-30T09:51:06.754Z,97810.25
2022-09-30T09:53:49.478Z,97807.53
2022-09-30T09:56:22.785Z,97803.47
2022-09-30T09:59:13.574Z,97809.38
2022-09-30T10:01:50.813Z,97803.78
2022-09-30T10:04:23.900Z,97809.44
2022-09-30T10:07:13.165Z,97806.66
2022-09-30T10:09:43.158Z,97812.41
2022-09-30T10:12:12.796Z,97817.13
2022-09-30T10:14:52.654Z,97809.31
2022-09-30T10:17:29.361Z,97815.09
2022-09-30T10:20:32.870Z,97831.28
2022-09-30T10:23:08.528Z,97827.81
2022-09-30T10:25:36.135Z,97824.75
2022-09-30T10:28:22.558Z,97813.97
2022-09-30T10:31:04.799Z,97813.63
2022-09-30T10:33:49.186Z,97824.63
2022-09-30T10:36:18.271Z,97825.78
2022-09-30T10:39:08.439Z,97825.38
2022-09-30T10:41:38.121Z,97838.22
2022-09-30T10:44:16.229Z,97819.41
2022-09-30T10:46:45.347Z,97825.53
2022-09-30T10:49:33.142Z,97839.53
2022-09-30T10:52:01.760Z,97838.78
2022-09-30T10:54:53.863Z,97825.81
2022-09-30T10:57:33.593Z,97825.44
2022-09-30T11:00:15.174Z,97829.34
2022-09-30T11:03:02.125Z,97834.47
2022-09-30T11:05:38.406Z,97832.78
2022-09-30T11:08:21.617Z,97841.34
2022-09-30T11:11:11.786Z,97836.41
2022-09-30T11:14:35.825Z,97827.97
2022-09-30T11:17:08.821Z,97840.50
2022-09-30T11:20:08.404Z,97825.25
2022-09-30T11:22:42.346Z,97824.53
2022-09-30T11:25:25.543Z,97835.09
2022-09-30T11:28:19.992Z,97833.56
2022-09-30T11:31:14.423Z,97826.88
2022-09-30T11:34:16.753Z,97814.03
2022-09-30T11:36:59.449Z,97823.84
2022-09-30T11:40:20.614Z,97823.56
2022-09-30T11:43:12.820Z,97823.97
2022-09-30T11:46:29.648Z,97820.28
2022-09-30T11:50:04.992Z,97811.53
2022-09-30T11:53:20.244Z,97817.56
2022-09-30T11:56:28.423Z,97824.75
2022-09-30T11:59:00.932Z,97834.13
2022-09-30T12:02:01.151Z,97829.72
2022-09-30T12:04:41.862Z,97826.56
2022-09-30T12:07:23.499Z,97823.56
2022-09-30T12:09:59.729Z,97818.94
2022-09-30T12:12:26.771Z,97832.25
2022-09-30T12:15:05.758Z,97827.59
2022-09-30T12:17:45.538Z,97815.63
2022-09-30T12:20:34.105Z,97812.88
2022-09-30T12:23:36.318Z,97808.19
2022-09-30T12:26:05.323Z,97803.78
2022-09-30T12:29:08.884Z,97808.03
2022-09-30T12:32:09.541Z,97800.19
2022-09-30T12:35:17.931Z,97803.31
2022-09-30T12:38:05.849Z,97801.97
2022-09-30T12:41:11.911Z,97801.88
2022-09-30T12:44:13.015Z,97820.44
2022-09-30T12:46:48.967Z,97808.44
2022-09-30T12:49:23.528Z,97813.97
2022-09-30T12:51:57.042Z,97801.72
2022-09-30T12:54:58.828Z,97815.03
2022-09-30T12:57:33.690Z,97812.13
2022-09-30T13:00:23.182Z,97810.00
2022-09-30T13:03:11.032Z,97819.63
2022-09-30T13:05:47.311Z,97827.31
2022-09-30T13:08:18.642Z,97833.69
2022-09-30T13:10:59.196Z,97831.44
2022-09-30T13:13:33.776Z,97823.97
2022-09-30T13:16:06.486Z,97821.22
2022-09-30T13:18:33.578Z,97822.63
2022-09-30T13:21:07.917Z,97827.78
2022-09-30T13:23:47.155Z,97817.81
2022-09-30T13:26:29.183Z,97818.00
2022-09-30T13:29:02.589Z,97823.47
2022-09-30T13:31:53.792Z,97828.69
2022-09-30T13:34:23.915Z,97818.28
2022-09-30T13:36:50.862Z,97833.91
2022-09-30T13:39:19.322Z,97828.56
2022-09-30T13:42:26.805Z,97831.69
2022-09-30T13:45:00.686Z,97842.59
2022-09-30T13:48:00.503Z,97843.84
2022-09-30T13:50:34.929Z,97846.09
2022-09-30T13:53:07.974Z,97848.94
2022-09-30T13:55:50.052Z,97845.06
2022-09-30T13:58:20.036Z,97851.63
2022-09-30T14:01:05.318Z,97849.59
2022-09-30T14:04:11.681Z,97838.53
2022-09-30T14:06:59.293Z,97841.16
2022-09-30T14:09:38.759Z,97844.00
2022-09-30T14:12:23.182Z,97845.56
2022-09-30T14:15:17.272Z,97843.56
2022-09-30T14:17:49.545Z,97842.69
2022-09-30T14:20:54.589Z,97847.72
2022-09-30T14:23:21.984Z,97848.34
2022-09-30T14:26:27.085Z,97855.38
2022-09-30T14:29:11.978Z,97850.28
2022-09-30T14:31:46.608Z,97851.94
2022-09-30T14:34:16.034Z,97849.63
2022-09-30T14:36:45.234Z,97852.19
2022-09-30T14:39:24.117Z,97854.09
2022-09-30T14:41:59.339Z,97850.88
2022-09-30T14:44:29.871Z,97852.25
2022-09-30T14:47:01.573Z,97852.97
2022-09-30T14:49:34.463Z,97858.31
2022-09-30T14:52:06.653Z,97849.31
2022-09-30T14:54:34.207Z,97860.72
2022-09-30T14:57:02.994Z,97863.25
2022-09-30T14:59:37.586Z,97866.66
2022-09-30T15:02:20.572Z,97861.84
2022-09-30T15:05:01.274Z,97854.63
2022-09-30T15:07:29.436Z,97855.56
2022-09-30T15:10:01.815Z,97848.47
2022-09-30T15:12:28.907Z,97847.09
2022-09-30T15:14:59.234Z,97849.28
2022-09-30T15:17:44.604Z,97850.63
2022-09-30T15:20:37.990Z,97849.50
2022-09-30T15:23:15.965Z,97849.88
2022-09-30T15:25:43.325Z,97856.88
2022-09-30T15:28:12.228Z,97849.53
2022-09-30T15:30:40.290Z,97851.50
2022-09-30T15:33:15.556Z,97856.16
2022-09-30T15:35:42.596Z,97860.44
2022-09-30T15:38:32.183Z,97860.25
2022-09-30T15:41:12.902Z,97869.75
2022-09-30T15:43:54.067Z,97870.59
2022-09-30T15:46:29.553Z,97865.41
2022-09-30T15:49:01.604Z,97863.28
2022-09-30T15:51:41.002Z,97864.28
2022-09-30T15:54:37.854Z,97861.13
2022-09-30T15:57:42.844Z,97867.84
2022-09-30T16:00:40.635Z,97866.38
2022-09-30T16:03:30.473Z,97865.88
2022-09-30T16:06:13.661Z,97867.19
2022-09-30T16:08:54.326Z,97873.19
2022-09-30T16:11:34.776Z,97872.00
2022-09-30T16:14:06.045Z,97872.50
2022-09-30T16:16:35.290Z,97875.81
2022-09-30T16:19:03.718Z,97882.09
2022-09-30T16:21:44.069Z,97889.28
2022-09-30T16:24:23.160Z,97888.94
2022-09-30T16:26:57.064Z,97886.72
2022-09-30T16:29:26.786Z,97883.81
2022-09-30T16:31:57.583Z,97881.28
2022-09-30T16:34:29.814Z,97883.25
2022-09-30T16:37:11.320Z,97881.63
2022-09-30T16:39:38.413Z,97882.06
2022-09-30T16:42:05.266Z,97893.69
2022-09-30T16:44:35.485Z,97897.34
2022-09-30T16:47:02.775Z,97893.63
2022-09-30T16:49:29.685Z,97899.88
2022-09-30T16:51:56.646Z,97897.25
2022-09-30T16:54:23.619Z,97907.31
2022-09-30T16:56:50.520Z,97903.53
2022-09-30T16:59:19.043Z,97900.72
2022-09-30T17:01:45.977Z,97904.09
2022-09-30T17:04:15.331Z,97904.06
2022-09-30T17:06:44.126Z,97903.66
2022-09-30T17:09:11.079Z,97913.09
2022-09-30T17:11:38.391Z,97910.44
2022-09-30T17:14:06.116Z,97911.28
2022-09-30T17:16:36.239Z,97912.72
2022-09-30T17:19:04.604Z,97915.78
2022-09-30T17:21:31.566Z,97922.06
2022-09-30T17:23:58.996Z,97920.25
2022-09-30T17:26:25.951Z,97931.00
2022-09-30T17:28:55.436Z,97930.06
2022-09-30T17:31:24.597Z,97934.13
2022-09-30T17:33:51.831Z,97937.28
2022-09-30T17:36:19.017Z,97933.50
2022-09-30T17:38:46.175Z,97935.00
2022-09-30T17:41:33.818Z,97946.09
2022-09-30T17:44:02.516Z,97942.16
2022-09-30T17:46:42.033Z,97939.50
2022-09-30T17:49:09.436Z,97948.81
2022-09-30T17:51:37.656Z,97952.25
2022-09-30T17:54:06.754Z,97954.72
2022-09-30T17:56:34.835Z,97950.16
2022-09-30T17:59:02.850Z,97956.34
2022-09-30T18:01:31.118Z,97955.16
2022-09-30T18:04:00.418Z,97945.59
2022-09-30T18:06:28.730Z,97944.56
2022-09-30T18:08:55.995Z,97948.56
2022-09-30T18:11:26.130Z,97954.78
2022-09-30T18:13:59.390Z,97953.84
2022-09-30T18:16:30.738Z,97950.25
2022-09-30T18:19:04.240Z,97949.03
2022-09-30T18:21:36.258Z,97955.78
2022-09-30T18:24:05.513Z,97948.50
2022-09-30T18:26:35.643Z,97965.72
2022-09-30T18:29:04.210Z,97964.94
2022-09-30T18:31:38.605Z,97970.59
2022-09-30T18:34:07.031Z,97973.13
2022-09-30T18:36:37.253Z,97979.34
2022-09-30T18:39:04.688Z,97980.31
2022-09-30T18:41:33.792Z,97988.19
2022-09-30T18:44:02.952Z,97993.34
2022-09-30T18:46:31.193Z,97994.53
2022-09-30T18:48:58.274Z,97997.03
2022-09-30T18:51:25.692Z,98001.44
2022-09-30T18:53:58.665Z,98013.28
2022-09-30T18:56:32.005Z,98010.63
2022-09-30T18:59:01.360Z,98021.28
2022-09-30T19:01:28.626Z,98028.72
2022-09-30T19:03:55.707Z,98023.41
2022-09-30T19:06:22.947Z,98030.38
2022-09-30T19:08:50.118Z,98026.81
2022-09-30T19:11:17.589Z,98029.91
2022-09-30T19:13:49.905Z,98024.69
2022-09-30T19:16:19.813Z,98019.81
2022-09-30T19:18:47.404Z,98012.81
2022-09-30T19:21:20.070Z,98016.91
2022-09-30T19:23:47.525Z,98014.22
2022-09-30T19:26:15.714Z,98019.16
2022-09-30T19:28:43.109Z,98017.72
2022-09-30T19:31:15.167Z,98020.84
2022-09-30T19:33:55.378Z,98012.75
2022-09-30T19:36:25.469Z,98013.44
2022-09-30T19:39:02.877Z,98022.78
2022-09-30T19:41:32.948Z,98021.47
2022-09-30T19:44:01.935Z,98023.81
2022-09-30T19:46:30.108Z,98013.66
2022-09-30T19:48:57.255Z,98018.53
2022-09-30T19:51:25.039Z,98012.41
2022-09-30T19:54:04.178Z,98012.81
2022-09-30T19:56:35.213Z,98010.28
2022-09-30T19:59:02.126Z,98011.50
2022-09-30T20:01:30.956Z,98007.63
2022-09-30T20:04:04.691Z,98006.06
2022-09-30T20:06:33.374Z,98011.31
2022-09-30T20:09:03.203Z,98007.44
2022-09-30T20:11:33.498Z,98003.44
2022-09-30T20:14:21.306Z,98004.91
2022-09-30T20:16:48.512Z,98002.41
2022-09-30T20:19:17.742Z,98009.94
2022-09-30T20:21:45.482Z,98006.47
2022-09-30T20:24:15.450Z,98004.72
2022-09-30T20:26:43.938Z,98010.91
2022-09-30T20:29:12.026Z,98013.84
2022-09-30T20:31:41.386Z,98010.47
2022-09-30T20:34:12.715Z,98003.13
2022-09-30T20:36:40.500Z,97994.66
2022-09-30T20:39:08.141Z,97996.53
2022-09-30T20:41:38.218Z,97997.56
2022-09-30T20:44:13.652Z,97998.78
2022-09-30T20:46:41.783Z,98000.25
2022-09-30T20:49:09.315Z,98000.84
2022-09-30T20:51:36.381Z,98008.50
2022-09-30T20:54:03.512Z,97999.88
2022-09-30T20:56:49.584Z,98001.50
2022-09-30T20:59:17.135Z,97995.50
2022-09-30T21:01:44.175Z,98011.53
2022-09-30T21:04:11.496Z,98015.38
2022-09-30T21:06:38.475Z,98014.75
2022-09-30T21:09:05.590Z,98019.69
2022-09-30T21:11:33.083Z,98025.81
2022-09-30T21:14:00.667Z,98025.72
2022-09-30T21:16:29.396Z,98035.50
2022-09-30T21:18:56.550Z,98044.72
2022-09-30T21:21:24.774Z,98043.38
2022-09-30T21:23:59.330Z,98051.44
2022-09-30T21:26:27.905Z,98057.84
2022-09-30T21:28:54.885Z,98061.84
2022-09-30T21:31:25.208Z,98061.75
2022-09-30T21:33:58.277Z,98067.34
2022-09-30T21:36:27.182Z,98065.25
2022-09-30T21:38:55.066Z,98072.91
2022-09-30T21:41:22.557Z,98071.22
2022-09-30T21:43:49.717Z,98054.22
2022-09-30T21:46:18.372Z,98064.94
2022-09-30T21:48:46.015Z,98062.91
2022-09-30T21:51:13.815Z,98066.28
2022-09-30T21:53:41.654Z,98066.81
2022-09-30T21:56:11.642Z,98076.91
2022-09-30T21:58:38.866Z,98071.31
2022-09-30T22:01:06.990Z,98079.41
2022-09-30T22:03:37.843Z,98079.53
2022-09-30T22:06:10.475Z,98086.56
2022-09-30T22:08:42.201Z,98088.03
2022-09-30T22:11:27.393Z,98077.31
2022-09-30T22:13:57.192Z,98092.22
2022-09-30T22:16:27.871Z,98085.41
2022-09-30T22:18:58.818Z,98095.28
2022-09-30T22:21:27.974Z,98089.38
2022-09-30T22:23:54.913Z,98081.09
2022-09-30T22:26:22.875Z,98069.44
2022-09-30T22:28:56.439Z,98067.00
2022-09-30T22:31:27.782Z,98071.94
2022-09-30T22:34:16.691Z,98074.88
2022-09-30T22:37:02.979Z,98060.88
2022-09-30T22:39:30.921Z,98054.84
2022-09-30T22:41:58.965Z,98068.19
2022-09-30T22:44:29.281Z,98063.41
2022-09-30T22:47:00.167Z,98073.34
2022-09-30T22:49:34.262Z,98066.09
2022-09-30T22:52:03.721Z,98077.03
2022-09-30T22:54:31.194Z,98080.25
2022-09-30T22:56:59.395Z,98081.56
2022-09-30T22:59:27.729Z,98073.53
2022-09-30T23:01:58.161Z,98076.06
2022-09-30T23:04:28.241Z,98070.28
2022-09-30T23:06:55.696Z,98072.25
2022-09-30T23:09:23.159Z,98067.09
2022-09-30T23:11:53.600Z,98071.91
2022-09-30T23:14:22.359Z,98066.34
2022-09-30T23:16:50.201Z,98067.44
2022-09-30T23:19:17.963Z,98061.84
2022-09-30T23:21:44.911Z,98065.97
2022-09-30T23:24:12.351Z,98066.97
2022-09-30T23:26:39.738Z,98071.72
2022-09-30T23:29:11.226Z,98069.16
2022-09-30T23:31:38.661Z,98073.75
2022-09-30T23:34:06.505Z,98069.41
2022-09-30T23:36:36.856Z,98070.97
2022-09-30T23:39:21.315Z,98064.78
2022-09-30T23:41:49.615Z,98069.03
2022-09-30T23:44:20.485Z,98060.97
2022-09-30T23:47:06.905Z,98068.84
2022-09-30T23:49:35.743Z,98066.59
2022-09-30T23:52:12.615Z,98068.84
2022-09-30T23:54:41.985Z,98066.22
2022-09-30T23:57:10.512Z,98073.94
2022-09-30T23:59:38.540Z,98068.22
